createdAt,value
2023-02-11T00:01:07.508Z,102821.19
2023-02-11T00:03:35.652Z,102825.66
2023-02-11T00:06:05.859Z,102823.78
2023-02-11T00:08:33.347Z,102820.06
2023-02-11T00:11:00.924Z,102821.78
2023-02-11T00:13:28.404Z,102829.34
2023-02-11T00:15:55.992Z,102827.72
2023-02-11T00:18:23.688Z,102826.91
2023-02-11T00:20:51.235Z,102830.53
2023-02-11T00:23:18.842Z,102825.38
2023-02-11T00:25:46.293Z,102825.31
2023-02-11T00:28:13.895Z,102829.56
2023-02-11T00:30:41.629Z,102827.19
2023-02-11T00:33:09.561Z,102828.78
2023-02-11T00:35:38.683Z,102834.00
2023-02-11T00:38:08.518Z,102810.09
2023-02-11T00:40:36.217Z,102820.19
2023-02-11T00:43:04.316Z,102822.34
2023-02-11T00:45:32.002Z,102811.22
2023-02-11T00:47:59.359Z,102807.88
2023-02-11T00:50:28.896Z,102813.09
2023-02-11T00:52:56.537Z,102814.56
2023-02-11T00:55:24.074Z,102810.81
2023-02-11T00:57:51.929Z,102809.22
2023-02-11T01:00:19.567Z,102815.25
2023-02-11T01:02:47.053Z,102815.31
2023-02-11T01:05:14.564Z,102812.56
2023-02-11T01:07:42.038Z,102816.66
2023-02-11T01:10:09.573Z,102807.47
2023-02-11T01:12:37.519Z,102805.59
2023-02-11T01:15:05.921Z,102811.13
2023-02-11T01:17:35.155Z,102810.56
2023-02-11T01:20:07.752Z,102805.22
2023-02-11T01:22:39.468Z,102801.59
2023-02-11T01:25:08.686Z,102799.28
2023-02-11T01:27:37.133Z,102800.38
2023-02-11T01:30:06.885Z,102806.34
2023-02-11T01:32:35.177Z,102810.06
2023-02-11T01:35:02.549Z,102807.78
2023-02-11T01:37:30.044Z,102813.94
2023-02-11T01:39:58.020Z,102806.94
2023-02-11T01:42:25.546Z,102804.81
2023-02-11T01:44:54.559Z,102804.69
2023-02-11T01:47:22.082Z,102797.97
2023-02-11T01:49:55.565Z,102795.53
2023-02-11T01:52:31.615Z,102797.84
2023-02-11T01:55:21.184Z,102800.31
2023-02-11T01:57:56.423Z,102791.94
2023-02-11T02:00:29.144Z,102788.38
2023-02-11T02:03:11.388Z,102791.00
2023-02-11T02:05:42.927Z,102784.03
2023-02-11T02:08:25.856Z,102784.16
2023-02-11T02:10:56.536Z,102790.88
2023-02-11T02:13:25.335Z,102788.59
2023-02-11T02:15:56.628Z,102789.34
2023-02-11T02:18:42.449Z,102789.53
2023-02-11T02:21:29.680Z,102785.09
2023-02-11T02:24:15.450Z,102792.69
2023-02-11T02:27:14.009Z,102790.47
2023-02-11T02:30:14.712Z,102779.75
2023-02-11T02:33:24.466Z,102782.16
2023-02-11T02:35:57.985Z,102782.78
2023-02-11T02:39:04.355Z,102783.81
2023-02-11T02:41:35.192Z,102771.19
2023-02-11T02:44:02.673Z,102775.84
2023-02-11T02:46:31.717Z,102774.91
2023-02-11T02:48:59.497Z,102772.63
2023-02-11T02:51:39.005Z,102770.50
2023-02-11T02:54:25.148Z,102764.50
2023-02-11T02:56:58.519Z,102778.94
2023-02-11T03:00:03.041Z,102762.72
2023-02-11T03:02:42.225Z,102753.19
2023-02-11T03:05:56.513Z,102752.25
2023-02-11T03:08:32.194Z,102754.66
2023-02-11T03:11:01.593Z,102753.59
2023-02-11T03:13:33.802Z,102748.47
2023-02-11T03:16:09.917Z,102741.78
2023-02-11T03:18:42.465Z,102742.84
2023-02-11T03:21:11.745Z,102756.94
2023-02-11T03:24:02.055Z,102755.06
2023-02-11T03:27:04.854Z,102738.16
2023-02-11T03:29:35.130Z,102738.28
2023-02-11T03:32:22.296Z,102739.63
2023-02-11T03:34:55.638Z,102729.16
2023-02-11T03:37:33.317Z,102722.44
2023-02-11T03:40:09.003Z,102727.56
2023-02-11T03:42:44.056Z,102727.16
2023-02-11T03:45:16.744Z,102729.66
2023-02-11T03:47:50.936Z,102724.75
2023-02-11T03:50:21.190Z,102721.34
2023-02-11T03:52:49.948Z,102725.53
2023-02-11T03:55:19.173Z,102732.25
2023-02-11T03:57:47.914Z,102727.03
2023-02-11T04:00:16.007Z,102721.94
2023-02-11T04:02:44.819Z,102714.97
2023-02-11T04:05:15.960Z,102715.94
2023-02-11T04:07:43.982Z,102716.53
2023-02-11T04:10:12.966Z,102712.81
2023-02-11T04:12:41.026Z,102711.00
2023-02-11T04:15:12.784Z,102707.97
2023-02-11T04:17:40.393Z,102714.69
2023-02-11T04:20:13.475Z,102721.25
2023-02-11T04:22:40.958Z,102704.22
2023-02-11T04:25:09.716Z,102702.09
2023-02-11T04:27:38.031Z,102713.22
2023-02-11T04:30:07.306Z,102707.56
2023-02-11T04:32:34.883Z,102695.50
2023-02-11T04:35:03.086Z,102690.25
2023-02-11T04:37:30.669Z,102687.31
2023-02-11T04:39:58.336Z,102686.19
2023-02-11T04:42:25.751Z,102686.66
2023-02-11T04:44:53.185Z,102685.75
2023-02-11T04:47:20.792Z,102676.72
2023-02-11T04:49:48.338Z,102697.25
2023-02-11T04:52:16.044Z,102698.56
2023-02-11T04:54:43.475Z,102688.25
2023-02-11T04:57:11.252Z,102682.28
2023-02-11T04:59:39.167Z,102683.88
2023-02-11T05:02:06.649Z,102684.56
2023-02-11T05:04:34.135Z,102696.16
2023-02-11T05:07:01.792Z,102692.94
2023-02-11T05:09:29.357Z,102694.97
2023-02-11T05:11:56.935Z,102688.19
2023-02-11T05:14:24.499Z,102688.25
2023-02-11T05:16:52.537Z,102697.91
2023-02-11T05:19:19.985Z,102681.44
2023-02-11T05:22:01.331Z,102682.28
2023-02-11T05:24:29.224Z,102683.88
2023-02-11T05:26:56.626Z,102687.25
2023-02-11T05:29:24.177Z,102686.22
2023-02-11T05:31:51.673Z,102683.16
2023-02-11T05:34:19.170Z,102685.97
2023-02-11T05:36:47.075Z,102683.81
2023-02-11T05:39:14.484Z,102684.50
2023-02-11T05:41:41.762Z,102682.63
2023-02-11T05:44:09.072Z,102685.00
2023-02-11T05:46:36.446Z,102691.31
2023-02-11T05:49:04.493Z,102684.06
2023-02-11T05:51:32.024Z,102683.28
2023-02-11T05:53:59.521Z,102684.63
2023-02-11T05:56:26.932Z,102680.72
2023-02-11T05:58:54.319Z,102672.66
2023-02-11T06:01:21.924Z,102671.59
2023-02-11T06:03:51.306Z,102672.84
2023-02-11T06:06:18.738Z,102676.03
2023-02-11T06:08:46.457Z,102670.41
2023-02-11T06:11:17.910Z,102668.53
2023-02-11T06:13:45.348Z,102663.72
2023-02-11T06:16:12.838Z,102668.94
2023-02-11T06:18:40.635Z,102663.84
2023-02-11T06:21:10.546Z,102660.50
2023-02-11T06:23:38.817Z,102653.59
2023-02-11T06:26:08.947Z,102650.97
2023-02-11T06:28:38.770Z,102658.47
2023-02-11T06:31:09.786Z,102661.34
2023-02-11T06:33:37.799Z,102661.44
2023-02-11T06:36:08.496Z,102674.44
2023-02-11T06:38:35.806Z,102672.44
2023-02-11T06:41:03.632Z,102667.59
2023-02-11T06:43:35.545Z,102667.88
2023-02-11T06:46:02.882Z,102674.84
2023-02-11T06:48:30.250Z,102676.47
2023-02-11T06:51:02.901Z,102674.84
2023-02-11T06:53:30.868Z,102671.75
2023-02-11T06:56:14.598Z,102672.38
2023-02-11T06:58:42.848Z,102677.41
2023-02-11T07:01:14.287Z,102669.75
2023-02-11T07:03:43.832Z,102678.56
2023-02-11T07:06:14.738Z,102674.19
2023-02-11T07:08:43.113Z,102672.84
2023-02-11T07:11:16.229Z,102677.19
2023-02-11T07:13:44.089Z,102671.63
2023-02-11T07:16:14.928Z,102670.25
2023-02-11T07:18:42.846Z,102669.19
2023-02-11T07:21:12.610Z,102672.78
2023-02-11T07:23:41.313Z,102675.91
2023-02-11T07:26:11.841Z,102677.41
2023-02-11T07:28:40.093Z,102681.59
2023-02-11T07:31:16.829Z,102675.81
2023-02-11T07:33:45.874Z,102685.91
2023-02-11T07:36:17.103Z,102687.09
2023-02-11T07:38:46.061Z,102683.97
2023-02-11T07:41:17.715Z,102690.19
2023-02-11T07:43:46.026Z,102692.16
2023-02-11T07:46:19.612Z,102699.94
2023-02-11T07:48:47.847Z,102691.06
2023-02-11T07:51:16.754Z,102686.50
2023-02-11T07:53:46.099Z,102693.03
2023-02-11T07:56:15.610Z,102690.13
2023-02-11T07:58:43.540Z,102687.94
2023-02-11T08:01:15.259Z,102693.53
2023-02-11T08:03:43.546Z,102697.38
2023-02-11T08:06:15.642Z,102703.75
2023-02-11T08:08:43.429Z,102692.88
2023-02-11T08:11:12.858Z,102701.00
2023-02-11T08:13:40.942Z,102698.78
2023-02-11T08:16:09.170Z,102698.31
2023-02-11T08:18:36.988Z,102695.97
2023-02-11T08:21:07.820Z,102696.28
2023-02-11T08:23:39.329Z,102695.69
2023-02-11T08:26:08.226Z,102694.28
2023-02-11T08:28:39.474Z,102693.72
2023-02-11T08:31:07.434Z,102690.88
2023-02-11T08:33:35.025Z,102688.78
2023-02-11T08:36:07.693Z,102692.06
2023-02-11T08:38:35.050Z,102687.03
2023-02-11T08:41:02.638Z,102695.63
2023-02-11T08:43:30.154Z,102695.72
2023-02-11T08:45:59.516Z,102689.69
2023-02-11T08:48:29.226Z,102694.59
2023-02-11T08:50:57.785Z,102695.28
2023-02-11T08:53:26.723Z,102697.53
2023-02-11T08:55:55.654Z,102703.06
2023-02-11T08:58:24.376Z,102701.63
2023-02-11T09:00:52.172Z,102710.75
2023-02-11T09:03:20.006Z,102713.34
2023-02-11T09:05:50.224Z,102721.25
2023-02-11T09:08:17.901Z,102720.88
2023-02-11T09:10:45.736Z,102713.94
2023-02-11T09:13:13.298Z,102713.94
2023-02-11T09:15:41.089Z,102725.91
2023-02-11T09:18:08.714Z,102711.22
2023-02-11T09:20:36.258Z,102716.28
2023-02-11T09:23:04.550Z,102732.16
2023-02-11T09:25:32.330Z,102722.06
2023-02-11T09:27:59.781Z,102706.75
2023-02-11T09:30:27.289Z,102715.41
2023-02-11T09:32:54.823Z,102715.41
2023-02-11T09:35:22.367Z,102712.81
2023-02-11T09:37:49.947Z,102718.31
2023-02-11T09:40:18.398Z,102708.44
2023-02-11T09:42:49.250Z,102705.16
2023-02-11T09:45:24.575Z,102710.97
2023-02-11T09:48:30.806Z,102724.06
2023-02-11T09:51:03.594Z,102720.16
2023-02-11T09:53:42.305Z,102725.13
2023-02-11T09:56:13.022Z,102731.31
2023-02-11T09:58:43.379Z,102723.81
2023-02-11T10:01:19.956Z,102727.63
2023-02-11T10:04:13.211Z,102730.72
2023-02-11T10:06:55.092Z,102720.94
2023-02-11T10:09:33.656Z,102723.03
2023-02-11T10:12:16.472Z,102714.03
2023-02-11T10:15:13.980Z,102715.75
2023-02-11T10:18:23.083Z,102727.13
2023-02-11T10:21:15.087Z,102734.41
2023-02-11T10:23:47.255Z,102718.81
2023-02-11T10:26:19.914Z,102715.38
2023-02-11T10:28:51.225Z,102715.00
2023-02-11T10:31:25.150Z,102716.69
2023-02-11T10:34:12.942Z,102717.97
2023-02-11T10:36:43.409Z,102706.44
2023-02-11T10:39:21.852Z,102704.72
2023-02-11T10:41:54.592Z,102710.59
2023-02-11T10:44:28.352Z,102713.47
2023-02-11T10:46:57.667Z,102714.25
2023-02-11T10:49:46.164Z,102714.94
2023-02-11T10:52:17.958Z,102715.75
2023-02-11T10:55:17.824Z,102705.31
2023-02-11T10:57:57.968Z,102705.19
2023-02-11T11:00:43.807Z,102690.84
2023-02-11T11:03:23.826Z,102680.06
2023-02-11T11:05:57.322Z,102675.63
2023-02-11T11:08:47.208Z,102676.72
2023-02-11T11:11:16.471Z,102667.28
2023-02-11T11:13:53.089Z,102667.34
2023-02-11T11:16:23.617Z,102674.09
2023-02-11T11:19:21.466Z,102662.19
2023-02-11T11:21:56.067Z,102659.66
2023-02-11T11:24:33.573Z,102650.09
2023-02-11T11:27:04.295Z,102631.38
2023-02-11T11:30:03.319Z,102633.09
2023-02-11T11:32:33.682Z,102629.72
2023-02-11T11:35:03.685Z,102624.66
2023-02-11T11:37:35.000Z,102617.81
2023-02-11T11:40:22.067Z,102627.31
2023-02-11T11:43:23.424Z,102624.50
2023-02-11T11:46:01.247Z,102624.34
2023-02-11T11:48:30.753Z,102621.81
2023-02-11T11:51:11.800Z,102620.94
2023-02-11T11:53:43.950Z,102622.66
2023-02-11T11:56:21.944Z,102612.28
2023-02-11T11:58:50.178Z,102604.63
2023-02-11T12:01:42.265Z,102613.31
2023-02-11T12:04:25.257Z,102615.09
2023-02-11T12:07:16.567Z,102605.66
2023-02-11T12:10:02.783Z,102601.38
2023-02-11T12:12:46.905Z,102607.41
2023-02-11T12:15:26.501Z,102597.22
2023-02-11T12:18:15.424Z,102586.97
2023-02-11T12:20:49.286Z,102592.09
2023-02-11T12:23:32.276Z,102585.22
2023-02-11T12:26:02.639Z,102580.91
2023-02-11T12:28:58.022Z,102579.16
2023-02-11T12:31:37.695Z,102577.41
2023-02-11T12:34:14.329Z,102573.03
2023-02-11T12:37:16.105Z,102569.63
2023-02-11T12:40:03.692Z,102560.16
2023-02-11T12:43:16.684Z,102566.19
2023-02-11T12:46:19.330Z,102567.09
2023-02-11T12:49:20.586Z,102561.09
2023-02-11T12:52:10.969Z,102560.22
2023-02-11T12:54:58.589Z,102548.13
2023-02-11T12:57:29.188Z,102542.97
2023-02-11T13:00:04.999Z,102543.81
2023-02-11T13:02:49.464Z,102536.91
2023-02-11T13:05:23.340Z,102521.38
2023-02-11T13:07:53.510Z,102524.84
2023-02-11T13:10:37.746Z,102534.28
2023-02-11T13:13:19.909Z,102528.13
2023-02-11T13:15:53.297Z,102521.25
2023-02-11T13:18:39.161Z,102528.16
2023-02-11T13:21:15.854Z,102528.22
2023-02-11T13:24:01.561Z,102521.25
2023-02-11T13:26:57.416Z,102520.44
2023-02-11T13:29:43.140Z,102516.97
2023-02-11T13:32:13.424Z,102512.63
2023-02-11T13:34:43.983Z,102512.63
2023-02-11T13:37:26.703Z,102498.72
2023-02-11T13:40:03.320Z,102493.56
2023-02-11T13:42:35.310Z,102493.56
2023-02-11T13:45:03.634Z,102490.00
2023-02-11T13:47:35.225Z,102491.75
2023-02-11T13:50:06.310Z,102498.75
2023-02-11T13:52:39.172Z,102489.22
2023-02-11T13:55:23.007Z,102498.69
2023-02-11T13:58:05.866Z,102481.44
2023-02-11T14:00:36.697Z,102490.06
2023-02-11T14:03:31.817Z,102478.84
2023-02-11T14:06:27.041Z,102481.38
2023-02-11T14:09:10.421Z,102471.00
2023-02-11T14:11:43.696Z,102479.66
2023-02-11T14:14:21.743Z,102476.16
2023-02-11T14:17:09.659Z,102468.28
2023-02-11T14:19:38.481Z,102462.28
2023-02-11T14:22:17.129Z,102463.97
2023-02-11T14:25:00.956Z,102463.09
2023-02-11T14:27:33.713Z,102455.25
2023-02-11T14:30:19.188Z,102462.06
2023-02-11T14:33:04.842Z,102453.38
2023-02-11T14:36:00.328Z,102442.25
2023-02-11T14:38:55.898Z,102441.28
2023-02-11T14:41:26.528Z,102432.69
2023-02-11T14:43:58.615Z,102430.97
2023-02-11T14:46:30.268Z,102430.13
2023-02-11T14:49:01.447Z,102431.81
2023-02-11T14:51:36.494Z,102431.00
2023-02-11T14:54:18.023Z,102422.25
2023-02-11T14:56:46.749Z,102425.78
2023-02-11T14:59:22.992Z,102418.00
2023-02-11T15:01:54.802Z,102424.03
2023-02-11T15:04:32.123Z,102418.59
2023-02-11T15:07:05.814Z,102413.59
2023-02-11T15:09:33.248Z,102411.94
2023-02-11T15:12:01.275Z,102408.44
2023-02-11T15:14:33.028Z,102416.25
2023-02-11T15:17:07.468Z,102411.91
2023-02-11T15:19:48.379Z,102405.03
2023-02-11T15:22:22.512Z,102411.97
2023-02-11T15:25:01.431Z,102407.63
2023-02-11T15:27:38.542Z,102396.50
2023-02-11T15:30:25.439Z,102389.53
2023-02-11T15:33:00.127Z,102389.63
2023-02-11T15:35:37.171Z,102394.84
2023-02-11T15:38:05.507Z,102393.06
2023-02-11T15:40:36.482Z,102386.13
2023-02-11T15:43:07.182Z,102382.81
2023-02-11T15:46:01.765Z,102387.91
2023-02-11T15:48:48.240Z,102386.34
2023-02-11T15:51:18.906Z,102384.59
2023-02-11T15:53:53.179Z,102391.59
2023-02-11T15:56:29.841Z,102389.88
2023-02-11T15:59:00.803Z,102389.97
2023-02-11T16:01:33.624Z,102383.03
2023-02-11T16:04:02.972Z,102393.44
2023-02-11T16:06:42.198Z,102388.19
2023-02-11T16:09:11.033Z,102381.28
2023-02-11T16:11:47.673Z,102387.41
2023-02-11T16:14:23.166Z,102390.03
2023-02-11T16:16:53.295Z,102388.31
2023-02-11T16:19:25.216Z,102382.31
2023-02-11T16:21:55.697Z,102391.84
2023-02-11T16:24:30.139Z,102388.41
2023-02-11T16:27:03.964Z,102381.53
2023-02-11T16:29:35.275Z,102383.28
2023-02-11T16:32:08.265Z,102379.81
2023-02-11T16:34:36.805Z,102388.44
2023-02-11T16:37:05.561Z,102378.13
2023-02-11T16:39:33.554Z,102378.13
2023-02-11T16:42:01.895Z,102379.88
2023-02-11T16:44:29.939Z,102381.59
2023-02-11T16:47:00.089Z,102393.69
2023-02-11T16:49:31.348Z,102391.09
2023-02-11T16:52:01.421Z,102387.66
2023-02-11T16:54:29.681Z,102390.25
2023-02-11T16:56:57.692Z,102386.81
2023-02-11T16:59:25.642Z,102397.13
2023-02-11T17:01:55.011Z,102391.97
2023-02-11T17:04:28.555Z,102392.81
2023-02-11T17:06:58.391Z,102398.84
2023-02-11T17:09:30.644Z,102398.00
2023-02-11T17:11:59.001Z,102405.75
2023-02-11T17:14:26.534Z,102404.81
2023-02-11T17:16:54.173Z,102409.91
2023-02-11T17:19:21.853Z,102410.69
2023-02-11T17:21:52.514Z,102414.00
2023-02-11T17:24:20.628Z,102409.53
2023-02-11T17:26:48.427Z,102415.47
2023-02-11T17:29:22.096Z,102411.06
2023-02-11T17:31:52.507Z,102411.88
2023-02-11T17:34:21.976Z,102410.13
2023-02-11T17:36:50.273Z,102411.78
2023-02-11T17:39:19.666Z,102410.09
2023-02-11T17:41:47.846Z,102423.66
2023-02-11T17:44:16.489Z,102415.00
2023-02-11T17:46:44.444Z,102416.59
2023-02-11T17:49:12.720Z,102424.19
2023-02-11T17:51:41.181Z,102412.88
2023-02-11T17:54:12.705Z,102419.59
2023-02-11T17:56:41.506Z,102416.00
2023-02-11T17:59:11.114Z,102428.03
2023-02-11T18:01:40.634Z,102417.75
2023-02-11T18:04:12.524Z,102424.47
2023-02-11T18:06:40.659Z,102417.53
2023-02-11T18:09:08.249Z,102413.09
2023-02-11T18:11:37.999Z,102411.41
2023-02-11T18:14:08.021Z,102406.91
2023-02-11T18:16:38.953Z,102408.66
2023-02-11T18:19:07.774Z,102411.19
2023-02-11T18:21:35.836Z,102400.06
2023-02-11T18:24:06.842Z,102407.88
2023-02-11T18:26:35.724Z,102410.22
2023-02-11T18:29:05.396Z,102413.38
2023-02-11T18:31:35.377Z,102412.47
2023-02-11T18:34:06.065Z,102409.75
2023-02-11T18:36:34.671Z,102406.25
2023-02-11T18:39:02.549Z,102411.19
2023-02-11T18:41:30.136Z,102422.16
2023-02-11T18:43:58.703Z,102422.97
2023-02-11T18:46:26.338Z,102424.59
2023-02-11T18:48:56.067Z,102422.88
2023-02-11T18:51:24.460Z,102414.31
2023-02-11T18:53:52.381Z,102409.00
2023-02-11T18:56:23.140Z,102413.28
2023-02-11T18:58:52.148Z,102417.50
2023-02-11T19:01:24.561Z,102415.72
2023-02-11T19:03:53.309Z,102420.00
2023-02-11T19:06:25.579Z,102419.06
2023-02-11T19:08:57.479Z,102414.06
2023-02-11T19:11:46.435Z,102426.94
2023-02-11T19:14:14.524Z,102425.97
2023-02-11T19:16:44.133Z,102420.91
2023-02-11T19:19:11.992Z,102419.16
2023-02-11T19:21:42.649Z,102415.63
2023-02-11T19:24:11.520Z,102421.72
2023-02-11T19:26:38.998Z,102427.50
2023-02-11T19:29:06.957Z,102427.50
2023-02-11T19:31:35.371Z,102429.00
2023-02-11T19:34:04.015Z,102420.41
2023-02-11T19:36:31.839Z,102422.06
2023-02-11T19:39:04.766Z,102418.38
2023-02-11T19:41:33.677Z,102418.31
2023-02-11T19:44:01.636Z,102409.59
2023-02-11T19:46:32.522Z,102416.41
2023-02-11T19:49:01.185Z,102419.63
2023-02-11T19:51:29.361Z,102417.03
2023-02-11T19:53:58.397Z,102412.69
2023-02-11T19:56:28.557Z,102417.78
2023-02-11T19:58:56.070Z,102420.09
2023-02-11T20:01:24.805Z,102422.53
2023-02-11T20:03:53.944Z,102413.97
2023-02-11T20:06:24.769Z,102422.44
2023-02-11T20:09:01.234Z,102418.13
2023-02-11T20:11:31.496Z,102413.06
2023-02-11T20:13:59.660Z,102409.38
2023-02-11T20:16:46.297Z,102420.38
2023-02-11T20:19:18.481Z,102417.56
2023-02-11T20:21:49.171Z,102420.03
2023-02-11T20:24:18.322Z,102425.22
2023-02-11T20:26:48.494Z,102406.22
2023-02-11T20:29:19.011Z,102409.47
2023-02-11T20:31:50.110Z,102409.69
2023-02-11T20:34:18.920Z,102415.59
2023-02-11T20:36:52.315Z,102411.41
2023-02-11T20:39:22.665Z,102410.47
2023-02-11T20:41:51.288Z,102408.75
2023-02-11T20:44:19.516Z,102411.34
2023-02-11T20:46:47.119Z,102412.97
2023-02-11T20:49:15.461Z,102414.53
2023-02-11T20:51:43.404Z,102409.22
2023-02-11T20:54:13.350Z,102410.84
2023-02-11T20:56:41.095Z,102401.66
2023-02-11T20:59:09.300Z,102404.22
2023-02-11T21:01:43.869Z,102408.22
2023-02-11T21:04:17.771Z,102410.53
2023-02-11T21:06:47.622Z,102402.84
2023-02-11T21:09:19.969Z,102399.22
2023-02-11T21:11:48.948Z,102398.34
2023-02-11T21:14:16.355Z,102405.56
2023-02-11T21:16:44.091Z,102399.69
2023-02-11T21:19:12.191Z,102390.41
2023-02-11T21:21:40.183Z,102397.06
2023-02-11T21:24:09.508Z,102398.66
2023-02-11T21:26:38.008Z,102405.50
2023-02-11T21:29:07.326Z,102412.13
2023-02-11T21:31:36.330Z,102406.97
2023-02-11T21:34:05.462Z,102406.84
2023-02-11T21:36:33.319Z,102394.09
2023-02-11T21:39:01.964Z,102399.56
2023-02-11T21:41:29.903Z,102397.75
2023-02-11T21:43:57.389Z,102388.31
2023-02-11T21:46:25.049Z,102387.78
2023-02-11T21:48:52.872Z,102386.63
2023-02-11T21:51:21.627Z,102401.25
2023-02-11T21:53:57.057Z,102397.94
2023-02-11T21:56:28.997Z,102399.69
2023-02-11T21:58:59.899Z,102404.88
2023-02-11T22:01:30.111Z,102405.41
2023-02-11T22:04:02.058Z,102407.03
2023-02-11T22:06:33.135Z,102409.88
2023-02-11T22:09:08.612Z,102407.28
2023-02-11T22:11:37.772Z,102397.94
2023-02-11T22:14:05.524Z,102404.97
2023-02-11T22:16:34.391Z,102401.25
2023-02-11T22:19:03.172Z,102399.63
2023-02-11T22:21:30.735Z,102406.50
2023-02-11T22:23:59.153Z,102393.69
2023-02-11T22:26:28.069Z,102401.84
2023-02-11T22:28:57.951Z,102406.16
2023-02-11T22:31:29.956Z,102408.75
2023-02-11T22:34:00.770Z,102406.31
2023-02-11T22:36:37.720Z,102401.19
2023-02-11T22:39:08.782Z,102402.59
2023-02-11T22:41:38.705Z,102407.06
2023-02-11T22:44:06.914Z,102409.06
2023-02-11T22:46:34.509Z,102413.03
2023-02-11T22:49:02.017Z,102397.56
2023-02-11T22:51:30.875Z,102409.69
2023-02-11T22:54:02.065Z,102398.50
2023-02-11T22:56:32.059Z,102403.47
2023-02-11T22:59:01.586Z,102397.25
2023-02-11T23:01:29.984Z,102402.47
2023-02-11T23:04:00.133Z,102389.75
2023-02-11T23:06:27.909Z,102394.25
2023-02-11T23:08:56.341Z,102392.34
2023-02-11T23:11:26.449Z,102393.31
2023-02-11T23:13:54.651Z,102395.91
2023-02-11T23:16:27.737Z,102401.13
2023-02-11T23:18:55.486Z,102394.31
2023-02-11T23:21:27.228Z,102393.22
2023-02-11T23:24:06.319Z,102394.47
2023-02-11T23:26:34.464Z,102402.31
2023-02-11T23:29:02.121Z,102403.88
2023-02-11T23:31:38.064Z,102393.53
2023-02-11T23:34:08.347Z,102402.84
2023-02-11T23:36:37.739Z,102412.84
2023-02-11T23:39:06.445Z,102407.66
2023-02-11T23:41:34.180Z,102403.53
2023-02-11T23:44:01.771Z,102391.22
2023-02-11T23:46:30.441Z,102399.72
2023-02-11T23:48:58.111Z,102392.97
2023-02-11T23:51:25.868Z,102400.06
2023-02-11T23:53:56.103Z,102401.38
2023-02-11T23:56:26.879Z,102404.88
2023-02-11T23:58:56.844Z,102406.50
